createdAt,value
2018-02-25T00:00:14.927Z,3.65
2018-02-25T00:02:44.365Z,3.20
2018-02-25T00:05:13.795Z,3.78
2018-02-25T00:07:43.217Z,3.40
2018-02-25T00:10:12.823Z,3.35
2018-02-25T00:12:42.198Z,3.33
2018-02-25T00:15:11.824Z,3.37
2018-02-25T00:17:41.271Z,4.18
2018-02-25T00:20:10.865Z,3.40
2018-02-25T00:22:40.287Z,3.53
2018-02-25T00:25:09.884Z,3.65
2018-02-25T00:27:39.311Z,3.90
2018-02-25T00:30:08.882Z,3.70
2018-02-25T00:32:38.331Z,3.00
2018-02-25T00:35:07.863Z,3.20
2018-02-25T00:37:37.340Z,4.30
2018-02-25T00:40:06.918Z,3.08
2018-02-25T00:42:36.342Z,3.90
2018-02-25T00:45:05.904Z,3.50
2018-02-25T00:47:35.318Z,3.70
2018-02-25T00:50:04.891Z,3.90
2018-02-25T00:52:34.297Z,3.62
2018-02-25T00:55:03.988Z,3.85
2018-02-25T00:57:33.414Z,3.75
2018-02-25T01:00:03.068Z,3.60
2018-02-25T01:02:32.534Z,3.95
2018-02-25T01:05:01.953Z,4.20
2018-02-25T01:07:31.392Z,3.62
2018-02-25T01:10:00.776Z,3.60
2018-02-25T01:12:30.175Z,3.22
2018-02-25T01:14:59.580Z,3.62
2018-02-25T01:17:28.973Z,4.28
2018-02-25T01:19:58.402Z,3.70
2018-02-25T01:22:27.820Z,4.12
2018-02-25T01:24:57.204Z,4.80
2018-02-25T01:27:26.640Z,4.47
2018-02-25T01:29:56.057Z,3.70
2018-02-25T01:32:25.512Z,3.67
2018-02-25T01:34:54.874Z,4.35
2018-02-25T01:37:24.306Z,3.70
2018-02-25T01:39:53.714Z,4.45
2018-02-25T01:42:23.112Z,3.53
2018-02-25T01:44:52.529Z,4.20
2018-02-25T01:47:21.929Z,3.70
2018-02-25T01:49:51.345Z,3.92
2018-02-25T01:52:20.750Z,3.83
2018-02-25T01:54:50.174Z,3.90
2018-02-25T01:57:19.594Z,3.70
2018-02-25T01:59:48.998Z,3.90
2018-02-25T02:02:18.407Z,4.43
2018-02-25T02:04:47.817Z,4.45
2018-02-25T02:07:17.209Z,4.10
2018-02-25T02:09:46.615Z,3.65
2018-02-25T02:12:16.044Z,3.50
2018-02-25T02:14:45.432Z,3.35
2018-02-25T02:17:14.841Z,3.35
2018-02-25T02:19:44.220Z,3.33
2018-02-25T02:22:13.642Z,3.83
2018-02-25T02:24:43.032Z,4.10
2018-02-25T02:27:12.468Z,4.57
2018-02-25T02:29:41.886Z,3.55
2018-02-25T02:32:11.312Z,3.95
2018-02-25T02:34:40.681Z,4.43
2018-02-25T02:37:10.115Z,4.22
2018-02-25T02:39:39.524Z,4.20
2018-02-25T02:42:08.950Z,4.53
2018-02-25T02:44:38.345Z,3.97
2018-02-25T02:47:07.744Z,3.80
2018-02-25T02:49:37.174Z,3.80
2018-02-25T02:52:06.542Z,4.20
2018-02-25T02:54:36.006Z,3.95
2018-02-25T02:57:05.406Z,4.35
2018-02-25T02:59:34.816Z,4.50
2018-02-25T03:02:04.204Z,3.87
2018-02-25T03:04:33.613Z,4.20
2018-02-25T03:07:03.024Z,3.95
2018-02-25T03:09:32.432Z,4.20
2018-02-25T03:12:01.827Z,3.65
2018-02-25T03:14:31.231Z,4.62
2018-02-25T03:17:01.067Z,4.30
2018-02-25T03:19:30.480Z,4.15
2018-02-25T03:21:59.890Z,3.67
2018-02-25T03:24:29.262Z,4.15
2018-02-25T03:26:58.662Z,4.03
2018-02-25T03:29:28.052Z,4.78
2018-02-25T03:31:57.482Z,3.62
2018-02-25T03:34:26.902Z,3.15
2018-02-25T03:36:56.294Z,4.00
2018-02-25T03:39:25.711Z,3.83
2018-02-25T03:41:55.111Z,3.80
2018-02-25T03:44:24.508Z,4.05
2018-02-25T03:46:53.943Z,3.83
2018-02-25T03:49:23.330Z,4.05
2018-02-25T03:51:52.767Z,4.72
2018-02-25T03:54:22.185Z,3.75
2018-02-25T03:56:51.578Z,3.70
2018-02-25T03:59:20.992Z,3.67
2018-02-25T04:01:50.432Z,4.30
2018-02-25T04:04:19.870Z,4.22
2018-02-25T04:06:49.243Z,3.67
2018-02-25T04:09:18.673Z,4.20
2018-02-25T04:11:48.064Z,4.40
2018-02-25T04:14:17.464Z,3.85
2018-02-25T04:16:46.863Z,4.15
2018-02-25T04:19:16.271Z,4.30
2018-02-25T04:21:45.669Z,4.00
2018-02-25T04:24:15.083Z,3.87
2018-02-25T04:26:44.519Z,3.53
2018-02-25T04:29:13.922Z,4.10
2018-02-25T04:31:43.331Z,4.35
2018-02-25T04:34:12.755Z,3.87
2018-02-25T04:36:42.176Z,3.60
2018-02-25T04:39:11.578Z,3.60
2018-02-25T04:41:41.019Z,4.85
2018-02-25T04:44:10.408Z,4.00
2018-02-25T04:46:39.828Z,4.00
2018-02-25T04:49:09.221Z,3.62
2018-02-25T04:51:38.643Z,4.30
2018-02-25T04:54:08.041Z,4.60
2018-02-25T04:56:37.449Z,3.83
2018-02-25T04:59:06.885Z,4.70
2018-02-25T05:01:36.290Z,3.75
2018-02-25T05:04:05.686Z,4.10
2018-02-25T05:06:35.099Z,4.25
2018-02-25T05:09:04.476Z,4.05
2018-02-25T05:11:33.883Z,4.28
2018-02-25T05:14:03.269Z,4.40
2018-02-25T05:16:32.673Z,4.60
2018-02-25T05:19:02.086Z,4.15
2018-02-25T05:21:31.511Z,4.12
2018-02-25T05:24:00.913Z,4.40
2018-02-25T05:26:30.314Z,4.03
2018-02-25T05:28:59.699Z,4.10
2018-02-25T05:31:29.104Z,3.47
2018-02-25T05:33:58.514Z,3.70
2018-02-25T05:36:27.949Z,4.40
2018-02-25T05:38:57.363Z,5.50
2018-02-25T05:41:26.782Z,4.32
2018-02-25T05:43:56.157Z,4.28
2018-02-25T05:46:25.562Z,6.25
2018-02-25T05:48:54.941Z,5.10
2018-02-25T05:51:24.380Z,5.10
2018-02-25T05:53:53.775Z,5.32
2018-02-25T05:56:23.165Z,4.00
2018-02-25T05:58:52.563Z,4.93
2018-02-25T06:01:21.943Z,4.82
2018-02-25T06:03:51.345Z,8.27
2018-02-25T06:06:20.748Z,7.15
2018-02-25T06:08:50.154Z,8.27
2018-02-25T06:11:19.573Z,9.60
2018-02-25T06:13:48.987Z,15.13
2018-02-25T06:16:18.455Z,24.95
2018-02-25T06:18:47.879Z,29.75
2018-02-25T06:21:17.277Z,7.35
2018-02-25T06:23:46.673Z,21.92
2018-02-25T06:26:16.091Z,8.80
2018-02-25T06:28:45.472Z,5.78
2018-02-25T06:31:14.890Z,6.65
2018-02-25T06:33:44.286Z,5.53
2018-02-25T06:36:13.706Z,9.50
2018-02-25T06:38:43.193Z,4.82
2018-02-25T06:41:12.573Z,5.68
2018-02-25T06:43:41.996Z,9.52
2018-02-25T06:46:11.411Z,7.00
2018-02-25T06:48:40.801Z,5.25
2018-02-25T06:51:10.214Z,6.95
2018-02-25T06:53:39.624Z,8.30
2018-02-25T06:56:09.035Z,6.35
2018-02-25T06:58:38.439Z,5.55
2018-02-25T07:01:07.864Z,6.07
2018-02-25T07:03:37.276Z,11.10
2018-02-25T07:06:06.709Z,5.80
2018-02-25T07:08:36.133Z,5.95
2018-02-25T07:11:05.536Z,11.65
2018-02-25T07:13:34.956Z,17.48
2018-02-25T07:16:04.376Z,14.00
2018-02-25T07:18:33.801Z,8.32
2018-02-25T07:21:03.234Z,7.43
2018-02-25T07:23:32.625Z,10.02
2018-02-25T07:26:02.056Z,5.25
2018-02-25T07:28:31.444Z,6.30
2018-02-25T07:31:00.861Z,5.80
2018-02-25T07:33:30.258Z,4.62
2018-02-25T07:35:59.630Z,4.68
2018-02-25T07:38:29.060Z,5.05
2018-02-25T07:40:58.445Z,4.70
2018-02-25T07:43:27.864Z,7.15
2018-02-25T07:45:57.253Z,4.70
2018-02-25T07:48:26.663Z,4.57
2018-02-25T07:50:56.086Z,4.35
2018-02-25T07:53:25.481Z,4.30
2018-02-25T07:55:54.896Z,5.00
2018-02-25T07:58:24.291Z,4.25
2018-02-25T08:00:53.710Z,3.90
2018-02-25T08:03:23.087Z,4.35
2018-02-25T08:05:52.545Z,4.50
2018-02-25T08:08:21.963Z,3.95
2018-02-25T08:10:51.350Z,4.25
2018-02-25T08:13:20.770Z,4.03
2018-02-25T08:15:50.183Z,3.83
2018-02-25T08:18:19.618Z,4.60
2018-02-25T08:20:49.002Z,4.28
2018-02-25T08:23:18.428Z,4.55
2018-02-25T08:25:47.844Z,4.62
2018-02-25T08:28:17.234Z,3.72
2018-02-25T08:30:46.640Z,3.85
2018-02-25T08:33:16.050Z,4.03
2018-02-25T08:35:45.454Z,3.20
2018-02-25T08:38:14.871Z,3.92
2018-02-25T08:40:44.294Z,4.25
2018-02-25T08:43:13.730Z,3.80
2018-02-25T08:45:43.182Z,4.00
2018-02-25T08:48:12.594Z,4.40
2018-02-25T08:50:42.009Z,4.68
2018-02-25T08:53:11.459Z,3.00
2018-02-25T08:55:40.844Z,4.70
2018-02-25T08:58:10.263Z,4.40
2018-02-25T09:00:39.662Z,3.28
2018-02-25T09:03:09.079Z,3.10
2018-02-25T09:05:38.473Z,3.40
2018-02-25T09:08:07.885Z,3.90
2018-02-25T09:10:37.269Z,3.60
2018-02-25T09:13:06.722Z,3.40
2018-02-25T09:15:36.178Z,3.15
2018-02-25T09:18:05.623Z,3.83
2018-02-25T09:20:35.052Z,3.50
2018-02-25T09:23:04.437Z,3.28
2018-02-25T09:25:33.950Z,3.17
2018-02-25T09:28:03.354Z,2.75
2018-02-25T09:30:32.795Z,3.10
2018-02-25T09:33:02.164Z,2.75
2018-02-25T09:35:31.590Z,2.87
2018-02-25T09:38:00.992Z,3.05
2018-02-25T09:40:30.472Z,2.60
2018-02-25T09:42:59.852Z,2.42
2018-02-25T09:45:29.286Z,2.95
2018-02-25T09:47:58.666Z,2.30
2018-02-25T09:50:28.114Z,2.80
2018-02-25T09:52:57.512Z,2.50
2018-02-25T09:55:26.918Z,3.15
2018-02-25T09:57:56.349Z,2.90
2018-02-25T10:00:25.754Z,2.50
2018-02-25T10:02:55.160Z,5.45
2018-02-25T10:05:24.567Z,13.55
2018-02-25T10:07:54.036Z,6.43
2018-02-25T10:10:23.474Z,3.22
2018-02-25T10:12:52.880Z,3.10
2018-02-25T10:15:22.283Z,2.35
2018-02-25T10:17:51.719Z,2.62
2018-02-25T10:20:21.173Z,2.62
2018-02-25T10:22:50.586Z,2.80
2018-02-25T10:25:20.026Z,3.12
2018-02-25T10:27:49.421Z,2.72
2018-02-25T10:30:19.544Z,2.62
2018-02-25T10:32:48.958Z,7.55
2018-02-25T10:35:18.411Z,3.80
2018-02-25T10:37:47.818Z,2.60
2018-02-25T10:40:17.251Z,2.65
2018-02-25T10:42:46.651Z,2.00
2018-02-25T10:45:16.067Z,2.35
2018-02-25T10:47:45.600Z,2.50
2018-02-25T10:50:15.088Z,2.40
2018-02-25T10:52:44.519Z,2.40
2018-02-25T10:55:13.914Z,2.15
2018-02-25T10:57:43.316Z,2.58
2018-02-25T11:00:12.758Z,2.28
2018-02-25T11:02:42.236Z,2.58
2018-02-25T11:05:11.864Z,2.80
2018-02-25T11:07:41.304Z,2.70
2018-02-25T11:10:10.828Z,3.00
2018-02-25T11:12:40.227Z,2.40
2018-02-25T11:15:09.773Z,2.30
2018-02-25T11:17:39.237Z,3.03
2018-02-25T11:20:08.786Z,2.92
2018-02-25T11:22:38.269Z,3.12
2018-02-25T11:25:07.840Z,2.37
2018-02-25T11:27:37.270Z,3.00
2018-02-25T11:30:06.964Z,3.25
2018-02-25T11:32:36.563Z,3.00
2018-02-25T11:35:06.157Z,3.20
2018-02-25T11:37:35.593Z,2.67
2018-02-25T11:40:06.496Z,3.20
2018-02-25T11:42:36.077Z,3.45
2018-02-25T11:45:05.647Z,3.03
2018-02-25T11:47:35.054Z,3.00
2018-02-25T11:50:04.699Z,3.12
2018-02-25T11:52:34.148Z,2.22
2018-02-25T11:55:03.736Z,2.60
2018-02-25T11:57:33.193Z,2.85
2018-02-25T12:00:02.610Z,2.47
2018-02-25T12:02:32.035Z,2.35
2018-02-25T12:05:01.425Z,2.60
2018-02-25T12:07:30.866Z,2.20
2018-02-25T12:10:00.263Z,2.53
2018-02-25T12:12:29.652Z,2.10
2018-02-25T12:14:59.612Z,2.50
2018-02-25T12:17:28.466Z,2.15
2018-02-25T12:19:59.238Z,2.22
2018-02-25T12:22:28.609Z,2.00
2018-02-25T12:24:58.037Z,2.53
2018-02-25T12:27:27.427Z,2.00
2018-02-25T12:29:56.846Z,2.22
2018-02-25T12:32:26.234Z,2.10
2018-02-25T12:34:55.657Z,2.35
2018-02-25T12:37:25.093Z,2.30
2018-02-25T12:39:54.503Z,2.53
2018-02-25T12:42:23.892Z,1.98
2018-02-25T12:44:53.325Z,2.08
2018-02-25T12:47:22.728Z,1.90
2018-02-25T12:49:52.152Z,2.25
2018-02-25T12:52:21.542Z,1.75
2018-02-25T12:54:51.012Z,2.00
2018-02-25T12:57:20.426Z,2.05
2018-02-25T12:59:49.850Z,1.70
2018-02-25T13:02:19.272Z,1.80
2018-02-25T13:04:48.697Z,1.65
2018-02-25T13:07:18.124Z,2.05
2018-02-25T13:09:47.552Z,1.98
2018-02-25T13:12:16.938Z,1.60
2018-02-25T13:14:46.373Z,1.95
2018-02-25T13:17:15.758Z,2.45
2018-02-25T13:19:45.174Z,1.60
2018-02-25T13:22:14.630Z,2.10
2018-02-25T13:24:44.047Z,2.22
2018-02-25T13:27:13.494Z,1.80
2018-02-25T13:29:42.884Z,1.73
2018-02-25T13:32:12.307Z,1.60
2018-02-25T13:34:41.716Z,2.05
2018-02-25T13:37:11.176Z,2.20
2018-02-25T13:39:40.576Z,1.80
2018-02-25T13:42:09.996Z,1.95
2018-02-25T13:44:39.439Z,1.87
2018-02-25T13:47:08.845Z,1.75
2018-02-25T13:49:38.252Z,2.00
2018-02-25T13:52:07.639Z,1.80
2018-02-25T13:54:37.059Z,1.98
2018-02-25T13:57:06.460Z,1.40
2018-02-25T13:59:35.899Z,1.70
2018-02-25T14:02:05.284Z,2.00
2018-02-25T14:04:34.698Z,1.67
2018-02-25T14:07:04.095Z,1.95
2018-02-25T14:09:33.517Z,1.50
2018-02-25T14:12:02.911Z,1.90
2018-02-25T14:14:32.338Z,2.00
2018-02-25T14:17:01.728Z,2.20
2018-02-25T14:19:31.152Z,1.70
2018-02-25T14:22:00.590Z,2.22
2018-02-25T14:24:30.032Z,2.17
2018-02-25T14:26:59.459Z,2.20
2018-02-25T14:29:28.889Z,2.00
2018-02-25T14:31:58.287Z,1.85
2018-02-25T14:34:27.721Z,1.67
2018-02-25T14:36:57.140Z,1.80
2018-02-25T14:39:26.574Z,1.80
2018-02-25T14:41:55.984Z,2.25
2018-02-25T14:44:25.413Z,3.33
2018-02-25T14:46:54.846Z,2.30
2018-02-25T14:49:24.262Z,2.78
2018-02-25T14:51:53.663Z,2.30
2018-02-25T14:54:23.092Z,2.70
2018-02-25T14:56:52.491Z,2.53
2018-02-25T14:59:22.000Z,2.20
2018-02-25T15:01:51.382Z,2.20
2018-02-25T15:04:20.824Z,1.80
2018-02-25T15:06:50.226Z,2.40
2018-02-25T15:09:19.629Z,2.20
2018-02-25T15:11:49.072Z,3.00
2018-02-25T15:14:18.465Z,3.00
2018-02-25T15:16:47.919Z,2.70
2018-02-25T15:19:17.305Z,2.53
2018-02-25T15:21:46.683Z,2.33
2018-02-25T15:24:16.113Z,2.45
2018-02-25T15:26:45.527Z,2.67
2018-02-25T15:29:14.925Z,2.50
2018-02-25T15:31:44.389Z,3.00
2018-02-25T15:34:13.798Z,2.40
2018-02-25T15:36:43.187Z,3.10
2018-02-25T15:39:12.596Z,2.53
2018-02-25T15:41:42.036Z,2.80
2018-02-25T15:44:11.477Z,2.80
2018-02-25T15:46:40.867Z,2.83
2018-02-25T15:49:10.300Z,2.35
2018-02-25T15:51:39.716Z,2.75
2018-02-25T15:54:09.151Z,2.60
2018-02-25T15:56:38.571Z,2.90
2018-02-25T15:59:07.997Z,2.50
2018-02-25T16:01:37.399Z,3.15
2018-02-25T16:04:06.835Z,2.53
2018-02-25T16:06:36.251Z,2.72
2018-02-25T16:09:05.651Z,2.60
2018-02-25T16:11:35.077Z,2.50
2018-02-25T16:14:04.480Z,3.40
2018-02-25T16:16:33.914Z,2.95
2018-02-25T16:19:03.290Z,3.45
2018-02-25T16:21:32.719Z,3.05
2018-02-25T16:24:02.126Z,2.90
2018-02-25T16:26:32.504Z,2.83
2018-02-25T16:29:01.951Z,3.03
2018-02-25T16:31:31.350Z,2.60
2018-02-25T16:34:00.772Z,2.50
2018-02-25T16:36:30.171Z,3.83
2018-02-25T16:38:59.594Z,2.83
2018-02-25T16:41:29.007Z,2.90
2018-02-25T16:43:58.436Z,3.30
2018-02-25T16:46:27.870Z,2.40
2018-02-25T16:48:57.297Z,2.95
2018-02-25T16:51:26.706Z,2.72
2018-02-25T16:53:56.161Z,10.38
2018-02-25T16:56:25.671Z,7.10
2018-02-25T16:58:55.076Z,3.37
2018-02-25T17:01:24.514Z,3.03
2018-02-25T17:03:53.897Z,3.75
2018-02-25T17:06:23.330Z,2.95
2018-02-25T17:08:52.764Z,6.50
2018-02-25T17:11:22.208Z,3.62
2018-02-25T17:13:51.624Z,4.20
2018-02-25T17:16:21.062Z,2.53
2018-02-25T17:18:50.511Z,2.85
2018-02-25T17:21:19.941Z,2.42
2018-02-25T17:23:49.364Z,2.75
2018-02-25T17:26:18.817Z,3.00
2018-02-25T17:28:48.229Z,2.58
2018-02-25T17:31:17.677Z,2.70
2018-02-25T17:33:47.112Z,5.25
2018-02-25T17:36:16.529Z,10.18
2018-02-25T17:38:45.970Z,7.57
2018-02-25T17:41:15.359Z,4.00
2018-02-25T17:43:44.811Z,4.60
2018-02-25T17:46:14.194Z,4.90
2018-02-25T17:48:43.595Z,3.90
2018-02-25T17:51:13.016Z,3.50
2018-02-25T17:53:42.438Z,3.62
2018-02-25T17:56:11.847Z,4.70
2018-02-25T17:58:41.252Z,4.07
2018-02-25T18:01:10.707Z,3.60
2018-02-25T18:03:40.131Z,3.83
2018-02-25T18:06:09.584Z,3.55
2018-02-25T18:08:38.987Z,3.40
2018-02-25T18:11:08.366Z,4.03
2018-02-25T18:13:37.802Z,3.83
2018-02-25T18:16:07.177Z,3.45
2018-02-25T18:18:36.611Z,4.25
2018-02-25T18:21:06.027Z,5.07
2018-02-25T18:23:35.432Z,4.75
2018-02-25T18:26:04.838Z,5.65
2018-02-25T18:28:34.259Z,6.40
2018-02-25T18:31:03.704Z,4.85
2018-02-25T18:33:33.175Z,5.00
2018-02-25T18:36:02.626Z,4.70
2018-02-25T18:38:32.096Z,4.68
2018-02-25T18:41:01.573Z,5.03
2018-02-25T18:43:31.075Z,4.57
2018-02-25T18:46:00.490Z,4.85
2018-02-25T18:48:29.959Z,4.82
2018-02-25T18:50:59.343Z,4.85
2018-02-25T18:53:28.777Z,5.15
2018-02-25T18:55:58.199Z,4.75
2018-02-25T18:58:27.670Z,5.80
2018-02-25T19:00:57.069Z,5.62
2018-02-25T19:03:26.517Z,6.60
2018-02-25T19:05:55.929Z,7.45
2018-02-25T19:08:25.376Z,4.90
2018-02-25T19:10:54.756Z,6.50
2018-02-25T19:13:24.231Z,5.22
2018-02-25T19:15:53.691Z,6.55
2018-02-25T19:18:23.969Z,5.32
2018-02-25T19:20:53.610Z,6.28
2018-02-25T19:23:22.995Z,9.88
2018-02-25T19:25:52.471Z,10.65
2018-02-25T19:28:21.891Z,10.90
2018-02-25T19:30:51.318Z,9.70
2018-02-25T19:33:20.741Z,6.18
2018-02-25T19:35:55.884Z,4.53
2018-02-25T19:38:31.085Z,48.72
2018-02-25T19:41:06.426Z,21.75
2018-02-25T19:43:35.861Z,8.80
2018-02-25T19:46:05.853Z,5.50
2018-02-25T19:48:35.306Z,5.25
2018-02-25T19:51:04.707Z,5.65
2018-02-25T19:53:34.984Z,5.68
2018-02-25T19:56:05.585Z,6.95
2018-02-25T19:58:35.070Z,6.60
2018-02-25T20:01:04.503Z,14.10
2018-02-25T20:03:33.947Z,7.53
2018-02-25T20:06:03.821Z,7.95
2018-02-25T20:08:33.279Z,7.12
2018-02-25T20:11:02.730Z,6.47
2018-02-25T20:13:32.151Z,5.95
2018-02-25T20:16:01.940Z,5.28
2018-02-25T20:18:31.447Z,5.72
2018-02-25T20:21:00.867Z,4.03
2018-02-25T20:23:30.316Z,3.75
2018-02-25T20:25:59.788Z,5.10
2018-02-25T20:28:29.226Z,5.28
2018-02-25T20:30:58.634Z,4.70
2018-02-25T20:33:28.071Z,5.47
2018-02-25T20:35:57.484Z,17.80
2018-02-25T20:38:26.937Z,14.07
2018-02-25T20:40:56.366Z,11.80
2018-02-25T20:43:25.808Z,9.82
2018-02-25T20:45:55.222Z,6.32
2018-02-25T20:48:24.683Z,4.32
2018-02-25T20:50:54.106Z,5.40
2018-02-25T20:53:23.554Z,5.37
2018-02-25T20:55:52.968Z,3.75
2018-02-25T20:58:22.420Z,4.30
2018-02-25T21:00:51.840Z,5.43
2018-02-25T21:03:21.262Z,6.15
2018-02-25T21:05:50.747Z,6.50
2018-02-25T21:08:20.215Z,6.00
2018-02-25T21:10:49.621Z,9.80
2018-02-25T21:13:19.076Z,11.32
2018-02-25T21:15:48.483Z,7.40
2018-02-25T21:18:17.892Z,10.48
2018-02-25T21:20:47.328Z,7.75
2018-02-25T21:23:16.785Z,10.13
2018-02-25T21:25:46.354Z,12.88
2018-02-25T21:28:15.758Z,6.65
2018-02-25T21:30:45.193Z,8.63
2018-02-25T21:33:14.585Z,6.20
2018-02-25T21:35:43.999Z,6.65
2018-02-25T21:38:13.419Z,5.85
2018-02-25T21:40:42.849Z,5.68
2018-02-25T21:43:12.265Z,5.57
2018-02-25T21:45:41.651Z,5.37
2018-02-25T21:48:11.074Z,7.43
2018-02-25T21:50:40.469Z,6.20
2018-02-25T21:53:14.808Z,5.80
2018-02-25T21:55:50.031Z,5.57
2018-02-25T21:58:25.112Z,5.97
2018-02-25T22:01:00.328Z,8.25
2018-02-25T22:03:35.478Z,10.10
2018-02-25T22:06:04.849Z,6.37
2018-02-25T22:08:34.274Z,8.27
2018-02-25T22:11:03.678Z,6.18
2018-02-25T22:13:33.078Z,6.10
2018-02-25T22:16:02.475Z,5.97
2018-02-25T22:18:31.926Z,6.07
2018-02-25T22:21:01.356Z,7.90
2018-02-25T22:23:30.744Z,6.28
2018-02-25T22:26:00.159Z,6.03
2018-02-25T22:28:29.578Z,6.40
2018-02-25T22:30:58.990Z,6.70
2018-02-25T22:33:28.432Z,7.80
2018-02-25T22:35:57.884Z,7.00
2018-02-25T22:38:27.488Z,6.70
2018-02-25T22:40:56.924Z,7.15
2018-02-25T22:43:26.353Z,6.97
2018-02-25T22:45:55.956Z,8.05
2018-02-25T22:48:25.374Z,7.30
2018-02-25T22:50:54.756Z,7.75
2018-02-25T22:53:24.183Z,7.70
2018-02-25T22:55:53.575Z,7.18
2018-02-25T22:58:23.006Z,8.60
2018-02-25T23:00:52.410Z,8.80
2018-02-25T23:03:21.842Z,8.95
2018-02-25T23:05:51.237Z,9.63
2018-02-25T23:08:20.674Z,8.10
2018-02-25T23:10:50.087Z,8.30
2018-02-25T23:13:19.527Z,7.90
2018-02-25T23:15:48.920Z,8.63
2018-02-25T23:18:18.321Z,8.65
2018-02-25T23:20:47.735Z,8.55
2018-02-25T23:23:17.119Z,8.82
2018-02-25T23:25:46.554Z,7.60
2018-02-25T23:28:15.942Z,9.75
2018-02-25T23:30:45.375Z,9.38
2018-02-25T23:33:14.756Z,8.50
2018-02-25T23:35:44.180Z,8.88
2018-02-25T23:38:13.572Z,9.38
2018-02-25T23:40:42.993Z,8.50
2018-02-25T23:43:12.390Z,8.68
2018-02-25T23:45:41.805Z,8.15
2018-02-25T23:48:11.248Z,7.97
2018-02-25T23:50:40.629Z,7.85
2018-02-25T23:53:10.065Z,8.38
2018-02-25T23:55:39.477Z,8.10
2018-02-25T23:58:08.893Z,8.40
